Coal City, Illinois
Current Conditions -  °F | °C
As of 5:55 AM on Wednesday 28 Jan 2015 (Local Time) from KC09 Reporting Station
Clear Clear  
Wind Chill: 13°   Ceiling: Unl
Heat Index: 20°   Visibility: 10mi
Dew Point: 18°   Wind: 6mph
Humidity: 90%   Direction: 150°SSE
Pressure: 30.27"   Gusts: NA
Location:  41.29°N, 88.29°W
Report Text: KC09 281155Z AUTO 15005KT 10SM CLR M06/M08 A3027 RMK AO2 T10641078 11047 21066
Loading
Personal Weather Stations






























Interactive Weather Map New forecast layout! Learn more

10-Day Weather Forecast

Advertisements
Track Severe Weather on mobile